| time (UTC) | temp F | wind direction | speed MPH | gust MPH | rain 1hr in | rain 24hr in | rain mn in | humidity % | barometer mb |
| 20260510225512 | 66 | 0 | 0.0 | 5.0 | 0.05 | 0.38 | 0.38 | 92 | 1016.9 |
| 20260510225018 | 66 | 0 | 1.0 | 6.0 | 0.06 | 0.38 | 0.38 | 91 | 1017.1 |
| 20260510224532 | 66 | 0 | 0.0 | 6.0 | 0.06 | 0.38 | 0.38 | 91 | 1016.8 |
| 20260510224011 | 66 | 82 | 1.0 | 5.0 | 0.06 | 0.38 | 0.38 | 91 | 1016.6 |
| 20260510223514 | 66 | 74 | 1.0 | 7.0 | 0.06 | 0.38 | 0.38 | 91 | 1016.4 |
| 20260510223030 | 67 | 89 | 2.0 | 9.0 | 0.06 | 0.38 | 0.38 | 91 | 1016.5 |
| 20260510222513 | 67 | 95 | 2.0 | 9.0 | 0.06 | 0.38 | 0.38 | 91 | 1016.7 |
| 20260510222016 | 67 | 104 | 2.0 | 8.0 | 0.07 | 0.38 | 0.38 | 90 | 1016.7 |
| 20260510221530 | 67 | 75 | 2.0 | 6.0 | 0.08 | 0.38 | 0.38 | 90 | 1017.1 |
| 20260510221013 | 67 | 64 | 1.0 | 4.0 | 0.08 | 0.38 | 0.38 | 90 | 1017.4 |
| 20260510220513 | 67 | 67 | 1.0 | 7.0 | 0.08 | 0.38 | 0.38 | 90 | 1017.5 |
| 20260510220031 | 67 | 91 | 1.0 | 8.0 | 0.06 | 0.36 | 0.36 | 89 | 1017.6 |
| 20260510215514 | 67 | 116 | 1.0 | 8.0 | 0.03 | 0.33 | 0.33 | 89 | 1017.8 |
| 20260510215013 | 68 | 0 | 2.0 | 6.0 | 0.02 | 0.32 | 0.32 | 89 | 1017.5 |
| 20260510214531 | 68 | 64 | 2.0 | 8.0 | 0.02 | 0.32 | 0.32 | 89 | 1017.3 |
| 20260510214015 | 68 | 25 | 2.0 | 8.0 | 0.02 | 0.32 | 0.32 | 88 | 1017.5 |
| 20260510213513 | 69 | 0 | 0.0 | 4.0 | 0.02 | 0.32 | 0.32 | 88 | 1017.4 |
| 20260510213031 | 69 | 0 | 0.0 | 7.0 | 0.02 | 0.32 | 0.32 | 88 | 1017.2 |
| 20260510212513 | 69 | 44 | 1.0 | 9.0 | 0.02 | 0.32 | 0.32 | 87 | 1016.8 |
| 20260510212018 | 69 | 63 | 4.0 | 14.0 | 0.01 | 0.31 | 0.31 | 85 | 1016.8 |
| 20260510211554 | 69 | 336 | 6.0 | 14.0 | 0.00 | 0.30 | 0.30 | 83 | 1018.8 |
| 20260510211013 | 70 | 330 | 4.0 | 12.0 | 0.00 | 0.30 | 0.30 | 82 | 1018.3 |
| 20260510210513 | 70 | 35 | 3.0 | 9.0 | 0.00 | 0.30 | 0.30 | 81 | 1017.8 |
| 20260510210032 | 70 | 20 | 3.0 | 7.0 | 0.00 | 0.30 | 0.30 | 80 | 1017.3 |
| 20260510205513 | 71 | 54 | 3.0 | 5.0 | 0.00 | 0.30 | 0.30 | 79 | 1017.2 |
| 20260510205018 | 72 | 56 | 3.0 | 5.0 | 0.00 | 0.30 | 0.30 | 78 | 1016.6 |
| 20260510204533 | 72 | 322 | 2.0 | 5.0 | 0.00 | 0.30 | 0.30 | 78 | 1016.7 |
| 20260510204014 | 72 | 60 | 2.0 | 6.0 | 0.00 | 0.30 | 0.30 | 77 | 1016.6 |
| 20260510203514 | 73 | 61 | 2.0 | 8.0 | 0.00 | 0.30 | 0.30 | 78 | 1016.6 |
| 20260510203034 | 73 | 77 | 3.0 | 9.0 | 0.00 | 0.30 | 0.30 | 78 | 1016.6 |
| 20260510202513 | 73 | 98 | 4.0 | 9.0 | 0.00 | 0.30 | 0.30 | 76 | 1016.7 |
| 20260510202013 | 73 | 65 | 2.0 | 6.0 | 0.00 | 0.30 | 0.30 | 76 | 1016.8 |
| 20260510201533 | 73 | 61 | 2.0 | 5.0 | 0.00 | 0.30 | 0.30 | 75 | 1016.9 |
| 20260510201013 | 73 | 70 | 2.0 | 8.0 | 0.00 | 0.30 | 0.30 | 74 | 1017.1 |
| 20260510200514 | 74 | 47 | 2.0 | 8.0 | 0.00 | 0.30 | 0.30 | 74 | 1017.2 |
| 20260510200034 | 74 | 66 | 1.0 | 5.0 | 0.00 | 0.30 | 0.30 | 74 | 1017.2 |
| 20260510195512 | 74 | 67 | 2.0 | 5.0 | 0.00 | 0.30 | 0.30 | 74 | 1017.3 |
| 20260510195011 | 75 | 71 | 2.0 | 5.0 | 0.00 | 0.30 | 0.30 | 75 | 1017.2 |
| 20260510194533 | 74 | 87 | 1.0 | 8.0 | 0.00 | 0.30 | 0.30 | 75 | 1016.9 |
| 20260510194012 | 74 | 143 | 3.0 | 8.0 | 0.00 | 0.30 | 0.30 | 74 | 1016.7 |
| 20260510193515 | 74 | 114 | 2.0 | 8.0 | 0.00 | 0.30 | 0.30 | 77 | 1016.6 |
| 20260510193030 | 74 | 73 | 2.0 | 9.0 | 0.00 | 0.30 | 0.30 | 78 | 1016.7 |
| 20260510192516 | 74 | 122 | 3.0 | 9.0 | 0.00 | 0.30 | 0.30 | 77 | 1016.7 |
| 20260510192014 | 74 | 120 | 3.0 | 9.0 | 0.00 | 0.30 | 0.30 | 79 | 1016.6 |
| 20260510191548 | 73 | 65 | 2.0 | 10.0 | 0.00 | 0.30 | 0.30 | 79 | 1016.5 |
| 20260510191015 | 73 | 98 | 3.0 | 10.0 | 0.00 | 0.30 | 0.30 | 78 | 1016.6 |
| 20260510190514 | 73 | 134 | 4.0 | 8.0 | 0.00 | 0.30 | 0.30 | 79 | 1016.7 |
| 20260510190041 | 72 | 141 | 3.0 | 10.0 | 0.00 | 0.30 | 0.30 | 81 | 1016.6 |
| 20260510185518 | 72 | 140 | 4.0 | 10.0 | 0.00 | 0.30 | 0.30 | 81 | 1016.7 |
| 20260510185016 | 72 | 127 | 3.0 | 9.0 | 0.00 | 0.30 | 0.30 | 82 | 1016.7 |
| 20260510184531 | 72 | 116 | 3.0 | 8.0 | 0.00 | 0.30 | 0.30 | 85 | 1017.0 |
| 20260510184014 | 71 | 83 | 2.0 | 9.0 | 0.01 | 0.30 | 0.30 | 85 | 1017.0 |
| 20260510183518 | 71 | 121 | 2.0 | 9.0 | 0.04 | 0.30 | 0.30 | 87 | 1016.9 |
| 20260510183032 | 70 | 0 | 2.0 | 9.0 | 0.07 | 0.30 | 0.30 | 89 | 1016.9 |
| 20260510182513 | 70 | 75 | 2.0 | 10.0 | 0.11 | 0.30 | 0.30 | 90 | 1016.8 |
| 20260510182014 | 69 | 106 | 2.0 | 10.0 | 0.15 | 0.30 | 0.30 | 91 | 1016.7 |
| 20260510181532 | 69 | 95 | 2.0 | 9.0 | 0.22 | 0.30 | 0.30 | 92 | 1016.6 |
| 20260510181019 | 68 | 150 | 1.0 | 9.0 | 0.26 | 0.30 | 0.30 | 93 | 1016.5 |
| 20260510180514 | 66 | 104 | 2.0 | 8.0 | 0.29 | 0.30 | 0.30 | 91 | 1016.1 |
| 20260510180036 | 66 | 89 | 1.0 | 7.0 | 0.29 | 0.30 | 0.30 | 91 | 1016.2 |
| 20260510175513 | 66 | 85 | 2.0 | 8.0 | 0.29 | 0.30 | 0.30 | 90 | 1016.2 |
| 20260510175015 | 66 | 83 | 1.0 | 9.0 | 0.29 | 0.30 | 0.30 | 90 | 1016.1 |
| 20260510174534 | 66 | 121 | 2.0 | 11.0 | 0.29 | 0.30 | 0.30 | 89 | 1015.9 |
| 20260510174014 | 66 | 59 | 3.0 | 11.0 | 0.27 | 0.28 | 0.28 | 89 | 1016.1 |
| 20260510173515 | 66 | 0 | 3.0 | 9.0 | 0.25 | 0.26 | 0.26 | 89 | 1016.4 |
| 20260510173031 | 66 | 107 | 0.0 | 8.0 | 0.21 | 0.22 | 0.22 | 88 | 1016.7 |
| 20260510172513 | 66 | 79 | 2.0 | 9.0 | 0.18 | 0.19 | 0.19 | 87 | 1016.6 |
| 20260510172020 | 66 | 52 | 3.0 | 12.0 | 0.13 | 0.14 | 0.14 | 86 | 1016.7 |
| 20260510171536 | 67 | 12 | 4.0 | 12.0 | 0.06 | 0.07 | 0.07 | 84 | 1017.1 |
| 20260510171012 | 68 | 32 | 5.0 | 12.0 | 0.02 | 0.03 | 0.03 | 82 | 1017.3 |
| 20260510170518 | 69 | 79 | 5.0 | 12.0 | 0.00 | 0.01 | 0.01 | 78 | 1017.4 |
| 20260510170033 | 70 | 60 | 4.0 | 12.0 | 0.00 | 0.01 | 0.01 | 75 | 1017.3 |
| 20260510165515 | 72 | 77 | 5.0 | 17.0 | 0.00 | 0.01 | 0.01 | 71 | 1017.2 |
| 20260510165014 | 73 | 25 | 5.0 | 17.0 | 0.00 | 0.01 | 0.01 | 68 | 1017.0 |
| 20260510164530 | 75 | 325 | 6.0 | 15.0 | 0.00 | 0.01 | 0.01 | 64 | 1016.9 |
| 20260510164014 | 77 | 39 | 5.0 | 15.0 | 0.00 | 0.01 | 0.01 | 61 | 1016.7 |
| 20260510163514 | 79 | 60 | 1.0 | 5.0 | 0.00 | 0.01 | 0.01 | 64 | 1016.6 |
| 20260510163034 | 79 | 208 | 1.0 | 8.0 | 0.00 | 0.01 | 0.01 | 64 | 1015.3 |
| 20260510162515 | 79 | 225 | 3.0 | 14.0 | 0.00 | 0.01 | 0.01 | 63 | 1014.9 |
| 20260510162014 | 79 | 216 | 4.0 | 14.0 | 0.00 | 0.01 | 0.01 | 63 | 1014.7 |
| 20260510161534 | 79 | 158 | 4.0 | 11.0 | 0.00 | 0.01 | 0.01 | 64 | 1014.6 |
| 20260510161014 | 79 | 142 | 3.0 | 11.0 | 0.00 | 0.01 | 0.01 | 65 | 1014.2 |
| 20260510160518 | 78 | 220 | 3.0 | 14.0 | 0.00 | 0.01 | 0.01 | 66 | 1014.1 |
| 20260510160032 | 78 | 215 | 5.0 | 14.0 | 0.00 | 0.01 | 0.01 | 66 | 1013.9 |
| 20260510155514 | 78 | 224 | 4.0 | 12.0 | 0.00 | 0.01 | 0.01 | 66 | 1013.7 |
| 20260510155014 | 78 | 141 | 5.0 | 12.0 | 0.00 | 0.01 | 0.01 | 67 | 1013.5 |
| 20260510154549 | 77 | 137 | 3.0 | 11.0 | 0.00 | 0.01 | 0.01 | 67 | 1013.4 |
| 20260510154021 | 76 | 194 | 5.0 | 11.0 | 0.00 | 0.01 | 0.01 | 67 | 1013.3 |
| 20260510153518 | 76 | 161 | 3.0 | 8.0 | 0.00 | 0.01 | 0.01 | 68 | 1013.2 |
| 20260510153033 | 75 | 174 | 3.0 | 10.0 | 0.00 | 0.01 | 0.01 | 67 | 1013.2 |
| 20260510152515 | 75 | 212 | 4.0 | 11.0 | 0.00 | 0.01 | 0.01 | 68 | 1013.4 |
| 20260510152015 | 75 | 204 | 4.0 | 11.0 | 0.00 | 0.01 | 0.01 | 69 | 1013.4 |
| 20260510151531 | 74 | 219 | 3.0 | 11.0 | 0.00 | 0.01 | 0.01 | 70 | 1013.4 |
| 20260510151014 | 73 | 177 | 3.0 | 9.0 | 0.00 | 0.01 | 0.01 | 71 | 1013.6 |
| 20260510150514 | 73 | 225 | 5.0 | 9.0 | 0.00 | 0.01 | 0.01 | 70 | 1013.6 |
| 20260510150035 | 72 | 207 | 3.0 | 9.0 | 0.00 | 0.01 | 0.01 | 73 | 1013.5 |
| 20260510145516 | 72 | 200 | 3.0 | 10.0 | 0.00 | 0.01 | 0.01 | 74 | 1013.5 |
| 20260510145014 | 72 | 216 | 3.0 | 11.0 | 0.00 | 0.01 | 0.01 | 75 | 1013.3 |
| 20260510144542 | 71 | 200 | 3.0 | 11.0 | 0.00 | 0.01 | 0.01 | 75 | 1013.2 |
| 20260510144015 | 71 | 202 | 5.0 | 12.0 | 0.00 | 0.01 | 0.01 | 76 | 1013.2 |
| 20260510143512 | 70 | 178 | 6.0 | 12.0 | 0.00 | 0.01 | 0.01 | 77 | 1013.5 |
| 20260510143040 | 70 | 198 | 4.0 | 10.0 | 0.00 | 0.01 | 0.01 | 78 | 1013.9 |
| 20260510142513 | 70 | 168 | 2.0 | 10.0 | 0.00 | 0.01 | 0.01 | 79 | 1014.0 |
| 20260510142013 | 69 | 157 | 2.0 | 15.0 | 0.00 | 0.01 | 0.01 | 80 | 1014.1 |
| 20260510141531 | 69 | 199 | 5.0 | 15.0 | 0.00 | 0.01 | 0.01 | 80 | 1014.1 |
| 20260510141015 | 69 | 222 | 4.0 | 10.0 | 0.00 | 0.01 | 0.01 | 81 | 1014.2 |
| 20260510140513 | 69 | 0 | 1.0 | 9.0 | 0.00 | 0.01 | 0.01 | 82 | 1014.3 |
| 20260510140038 | 68 | 212 | 3.0 | 14.0 | 0.00 | 0.01 | 0.01 | 82 | 1014.5 |
| 20260510135514 | 68 | 0 | 2.0 | 14.0 | 0.00 | 0.01 | 0.01 | 83 | 1014.8 |
| 20260510135014 | 68 | 173 | 2.0 | 8.0 | 0.00 | 0.01 | 0.01 | 83 | 1014.8 |
| 20260510134533 | 68 | 0 | 1.0 | 4.0 | 0.00 | 0.01 | 0.01 | 84 | 1014.9 |
| 20260510134015 | 68 | 0 | 0.0 | 6.0 | 0.00 | 0.01 | 0.01 | 85 | 1014.9 |
| 20260510133513 | 68 | 0 | 1.0 | 6.0 | 0.00 | 0.01 | 0.01 | 85 | 1015.1 |
| 20260510133032 | 68 | 0 | 0.0 | 3.0 | 0.00 | 0.01 | 0.01 | 86 | 1014.9 |
| 20260510132515 | 68 | 0 | 0.0 | 3.0 | 0.00 | 0.01 | 0.01 | 86 | 1014.8 |
| 20260510132014 | 67 | 0 | 1.0 | 3.0 | 0.00 | 0.01 | 0.01 | 86 | 1014.8 |
| 20260510131536 | 67 | 0 | 1.0 | 7.0 | 0.00 | 0.01 | 0.01 | 86 | 1014.7 |
| 20260510131017 | 67 | 0 | 1.0 | 7.0 | 0.00 | 0.01 | 0.01 | 87 | 1014.6 |
| 20260510130512 | 67 | 131 | 1.0 | 6.0 | 0.00 | 0.01 | 0.01 | 88 | 1014.5 |
| 20260510130033 | 67 | 0 | 0.0 | 6.0 | 0.00 | 0.01 | 0.01 | 88 | 1014.4 |
| 20260510125515 | 67 | 0 | 1.0 | 6.0 | 0.00 | 0.01 | 0.01 | 88 | 1014.2 |
| 20260510125014 | 67 | 171 | 1.0 | 6.0 | 0.00 | 0.01 | 0.01 | 88 | 1014.2 |
| 20260510124530 | 67 | 0 | 0.0 | 4.0 | 0.00 | 0.01 | 0.01 | 88 | 1014.3 |
| 20260510124016 | 67 | 192 | 0.0 | 4.0 | 0.00 | 0.01 | 0.01 | 89 | 1014.3 |
| 20260510123516 | 66 | 185 | 1.0 | 4.0 | 0.00 | 0.01 | 0.01 | 89 | 1014.4 |
| 20260510123034 | 66 | 0 | 0.0 | 2.0 | 0.00 | 0.01 | 0.01 | 89 | 1014.2 |
| 20260510122514 | 66 | 0 | 0.0 | 3.0 | 0.00 | 0.01 | 0.01 | 89 | 1014.1 |
| 20260510122018 | 66 | 0 | 0.0 | 4.0 | 0.00 | 0.01 | 0.01 | 89 | 1014.0 |
| 20260510121530 | 66 | 121 | 1.0 | 4.0 | 0.00 | 0.01 | 0.01 | 89 | 1013.9 |
| 20260510121014 | 66 | 129 | 0.0 | 3.0 | 0.00 | 0.01 | 0.01 | 89 | 1013.9 |
| 20260510120516 | 66 | 139 | 0.0 | 4.0 | 0.00 | 0.01 | 0.01 | 89 | 1014.0 |
| 20260510120032 | 66 | 0 | 0.0 | 4.0 | 0.00 | 0.01 | 0.01 | 89 | 1013.9 |
| 20260510115513 | 66 | 0 | 0.0 | 3.0 | 0.00 | 0.01 | 0.01 | 89 | 1013.8 |
| 20260510115014 | 66 | 0 | 0.0 | 3.0 | 0.00 | 0.01 | 0.01 | 89 | 1013.9 |
| 20260510114532 | 66 | 0 | 0.0 | 4.0 | 0.00 | 0.01 | 0.01 | 89 | 1013.8 |
| 20260510114014 | 66 | 127 | 0.0 | 4.0 | 0.00 | 0.01 | 0.01 | 89 | 1013.8 |
| 20260510113517 | 66 | 160 | 0.0 | 2.0 | 0.00 | 0.01 | 0.01 | 89 | 1013.7 |
| 20260510113031 | 66 | 155 | 0.0 | 2.0 | 0.00 | 0.01 | 0.01 | 89 | 1013.6 |
| 20260510112513 | 66 | 0 | 0.0 | 2.0 | 0.00 | 0.01 | 0.01 | 89 | 1013.7 |
| 20260510112014 | 66 | 0 | 0.0 | 4.0 | 0.00 | 0.01 | 0.01 | 88 | 1013.6 |
| 20260510111530 | 66 | 0 | 0.0 | 6.0 | 0.00 | 0.01 | 0.01 | 88 | 1013.6 |
| 20260510111013 | 66 | 127 | 0.0 | 6.0 | 0.00 | 0.01 | 0.01 | 88 | 1013.6 |
| 20260510110518 | 67 | 0 | 0.0 | 2.0 | 0.00 | 0.01 | 0.01 | 88 | 1013.6 |
| 20260510110038 | 67 | 0 | 0.0 | 2.0 | 0.00 | 0.01 | 0.01 | 88 | 1013.5 |
| 20260510105514 | 67 | 0 | 0.0 | 4.0 | 0.00 | 0.01 | 0.01 | 88 | 1013.5 |
| 20260510105015 | 67 | 0 | 0.0 | 4.0 | 0.01 | 0.01 | 0.01 | 88 | 1013.4 |
| 20260510104532 | 67 | 123 | 1.0 | 4.0 | 0.01 | 0.01 | 0.01 | 87 | 1013.3 |
| 20260510104013 | 67 | 137 | 0.0 | 6.0 | 0.01 | 0.01 | 0.01 | 87 | 1013.0 |
| 20260510103514 | 67 | 128 | 1.0 | 9.0 | 0.01 | 0.01 | 0.01 | 87 | 1013.2 |
| 20260510103034 | 67 | 0 | 0.0 | 9.0 | 0.01 | 0.01 | 0.01 | 87 | 1013.2 |
| 20260510102514 | 67 | 121 | 0.0 | 5.0 | 0.01 | 0.01 | 0.01 | 86 | 1013.2 |
| 20260510102012 | 67 | 0 | 1.0 | 4.0 | 0.01 | 0.01 | 0.01 | 86 | 1013.6 |
| 20260510101534 | 68 | 70 | 1.0 | 7.0 | 0.01 | 0.01 | 0.01 | 86 | 1013.6 |
| 20260510101013 | 68 | 0 | 2.0 | 11.0 | 0.01 | 0.01 | 0.01 | 85 | 1013.6 |
| 20260510100513 | 68 | 80 | 2.0 | 11.0 | 0.01 | 0.01 | 0.01 | 85 | 1013.6 |
| 20260510100032 | 68 | 81 | 2.0 | 10.0 | 0.01 | 0.01 | 0.01 | 84 | 1013.5 |
| 20260510095514 | 69 | 58 | 3.0 | 11.0 | 0.01 | 0.01 | 0.01 | 83 | 1013.0 |
| 20260510095016 | 69 | 100 | 2.0 | 20.0 | 0.00 | 0.00 | 0.00 | 82 | 1013.1 |
| 20260510094545 | 70 | 104 | 5.0 | 20.0 | 0.00 | 0.00 | 0.00 | 80 | 1012.7 |
| 20260510094014 | 70 | 116 | 6.0 | 12.0 | 0.00 | 0.00 | 0.00 | 79 | 1012.5 |
| 20260510093512 | 71 | 79 | 6.0 | 12.0 | 0.00 | 0.00 | 0.00 | 77 | 1013.5 |
| 20260510093048 | 72 | 70 | 5.0 | 12.0 | 0.00 | 0.00 | 0.00 | 75 | 1014.2 |
| 20260510092517 | 72 | 0 | 3.0 | 12.0 | 0.00 | 0.00 | 0.00 | 75 | 1014.1 |
| 20260510092016 | 73 | 359 | 4.0 | 12.0 | 0.00 | 0.00 | 0.00 | 76 | 1013.8 |
| 20260510091541 | 74 | 357 | 4.0 | 12.0 | 0.00 | 0.00 | 0.00 | 82 | 1013.5 |
| 20260510091012 | 75 | 68 | 2.0 | 5.0 | 0.00 | 0.00 | 0.00 | 88 | 1013.4 |
| 20260510090512 | 75 | 61 | 2.0 | 7.0 | 0.00 | 0.00 | 0.00 | 88 | 1012.9 |
| 20260510090034 | 75 | 64 | 1.0 | 7.0 | 0.00 | 0.00 | 0.00 | 87 | 1012.6 |
| 20260510085512 | 75 | 66 | 3.0 | 6.0 | 0.00 | 0.00 | 0.00 | 87 | 1012.5 |
| 20260510085015 | 75 | 72 | 1.0 | 4.0 | 0.00 | 0.00 | 0.00 | 87 | 1012.4 |
| 20260510084533 | 75 | 75 | 1.0 | 4.0 | 0.00 | 0.00 | 0.00 | 87 | 1012.1 |
| 20260510084015 | 75 | 75 | 0.0 | 4.0 | 0.00 | 0.00 | 0.00 | 87 | 1011.8 |
| 20260510083512 | 75 | 0 | 0.0 | 6.0 | 0.00 | 0.00 | 0.00 | 86 | 1011.4 |
| 20260510083033 | 75 | 91 | 1.0 | 6.0 | 0.00 | 0.00 | 0.00 | 86 | 1011.4 |
| 20260510082515 | 75 | 0 | 0.0 | 3.0 | 0.00 | 0.00 | 0.00 | 86 | 1011.6 |
| 20260510082015 | 75 | 0 | 0.0 | 3.0 | 0.00 | 0.00 | 0.00 | 85 | 1011.8 |
| 20260510081530 | 75 | 127 | 0.0 | 3.0 | 0.00 | 0.00 | 0.00 | 85 | 1011.9 |
| 20260510081019 | 75 | 0 | 0.0 | 1.0 | 0.00 | 0.00 | 0.00 | 84 | 1011.7 |
| 20260510080513 | 75 | 0 | 0.0 | 0.0 | 0.00 | 0.00 | 0.00 | 84 | 1011.3 |
| 20260510080033 | 75 | 0 | 0.0 | 0.0 | 0.00 | 0.00 | 0.00 | 84 | 1011.1 |
| 20260510075514 | 75 | 0 | 0.0 | 0.0 | 0.00 | 0.00 | 0.00 | 84 | 1011.0 |
| 20260510075015 | 76 | 0 | 0.0 | 0.0 | 0.00 | 0.00 | 0.00 | 83 | 1010.7 |
| 20260510074532 | 76 | 0 | 0.0 | 0.0 | 0.00 | 0.00 | 0.00 | 83 | 1010.6 |
| 20260510074012 | 76 | 0 | 0.0 | 1.0 | 0.00 | 0.00 | 0.00 | 83 | 1010.5 |
| 20260510073515 | 76 | 0 | 0.0 | 1.0 | 0.00 | 0.00 | 0.00 | 83 | 1010.4 |
| 20260510073040 | 76 | 0 | 0.0 | 1.0 | 0.00 | 0.00 | 0.00 | 83 | 1010.2 |
| 20260510072515 | 76 | 0 | 0.0 | 2.0 | 0.00 | 0.00 | 0.00 | 83 | 1010.1 |
| 20260510072014 | 76 | 0 | 0.0 | 3.0 | 0.00 | 0.00 | 0.00 | 83 | 1010.1 |
| 20260510071541 | 76 | 0 | 0.0 | 3.0 | 0.00 | 0.00 | 0.00 | 83 | 1010.1 |
| 20260510071015 | 76 | 0 | 0.0 | 9.0 | 0.00 | 0.00 | 0.00 | 83 | 1010.2 |
| 20260510070513 | 76 | 0 | 0.0 | 9.0 | 0.00 | 0.00 | 0.00 | 83 | 1010.5 |
| 20260510070034 | 76 | 87 | 1.0 | 6.0 | 0.00 | 0.00 | 0.00 | 82 | 1010.4 |
| 20260510065513 | 76 | 0 | 1.0 | 6.0 | 0.00 | 0.00 | 0.00 | 82 | 1010.7 |
| 20260510065013 | 76 | 0 | 1.0 | 5.0 | 0.00 | 0.00 | 0.00 | 81 | 1011.3 |
| 20260510064532 | 76 | 0 | 0.0 | 5.0 | 0.00 | 0.00 | 0.00 | 81 | 1011.5 |
| 20260510064014 | 76 | 0 | 0.0 | 5.0 | 0.00 | 0.00 | 0.00 | 81 | 1011.6 |
| 20260510063513 | 76 | 0 | 0.0 | 4.0 | 0.00 | 0.00 | 0.00 | 80 | 1011.9 |
| 20260510063032 | 76 | 0 | 0.0 | 0.0 | 0.00 | 0.00 | 0.00 | 80 | 1011.8 |
| 20260510062514 | 76 | 0 | 0.0 | 0.0 | 0.00 | 0.00 | 0.00 | 79 | 1011.7 |
| 20260510062014 | 76 | 0 | 0.0 | 3.0 | 0.00 | 0.00 | 0.00 | 79 | 1011.7 |
| 20260510061532 | 76 | 0 | 0.0 | 3.0 | 0.00 | 0.00 | 0.00 | 79 | 1011.8 |
| 20260510061016 | 76 | 0 | 0.0 | 2.0 | 0.00 | 0.00 | 0.00 | 79 | 1011.4 |
| 20260510060515 | 76 | 0 | 0.0 | 1.0 | 0.00 | 0.00 | 0.00 | 78 | 1010.7 |
| 20260510060032 | 76 | 0 | 0.0 | 6.0 | 0.00 | 0.00 | 0.00 | 78 | 1010.1 |
| 20260510055514 | 76 | 0 | 0.0 | 6.0 | 0.00 | 0.00 | 0.00 | 78 | 1009.7 |
| 20260510055013 | 76 | 0 | 1.0 | 4.0 | 0.00 | 0.00 | 0.00 | 78 | 1009.4 |
| 20260510054532 | 77 | 0 | 0.0 | 3.0 | 0.00 | 0.00 | 0.00 | 78 | 1009.3 |
| 20260510054016 | 77 | 150 | 0.0 | 3.0 | 0.00 | 0.00 | 0.00 | 78 | 1009.3 |
| 20260510053513 | 77 | 0 | 0.0 | 8.0 | 0.00 | 0.00 | 0.00 | 78 | 1009.2 |
| 20260510053050 | 77 | 166 | 1.0 | 8.0 | 0.00 | 0.00 | 0.00 | 77 | 1009.1 |
| 20260510052513 | 77 | 0 | 0.0 | 8.0 | 0.00 | 0.00 | 0.00 | 77 | 1009.1 |
| 20260510052017 | 77 | 0 | 1.0 | 8.0 | 0.00 | 0.00 | 0.00 | 77 | 1009.1 |
| 20260510051530 | 77 | 122 | 0.0 | 4.0 | 0.00 | 0.00 | 0.00 | 76 | 1009.1 |
| 20260510051013 | 77 | 0 | 0.0 | 4.0 | 0.00 | 0.00 | 0.00 | 75 | 1009.1 |
| 20260510050513 | 77 | 0 | 0.0 | 4.0 | 0.00 | 0.00 | 0.00 | 74 | 1009.1 |
| 20260510050033 | 77 | 0 | 0.0 | 5.0 | 0.00 | 0.00 | 0.00 | 73 | 1009.1 |
| 20260510045517 | 77 | 195 | 0.0 | 5.0 | 0.00 | 0.00 | 0.00 | 72 | 1009.0 |
| 20260510045013 | 77 | 0 | 0.0 | 4.0 | 0.00 | 0.00 | 0.00 | 71 | 1008.8 |
| 20260510044534 | 77 | 0 | 0.0 | 3.0 | 0.00 | 0.00 | 0.00 | 70 | 1008.7 |
| 20260510044014 | 77 | 0 | 0.0 | 3.0 | 0.00 | 0.00 | 0.00 | 70 | 1008.5 |
| 20260510043514 | 77 | 0 | 0.0 | 4.0 | 0.00 | 0.00 | 0.00 | 70 | 1008.6 |
| 20260510043042 | 77 | 0 | 0.0 | 4.0 | 0.00 | 0.00 | 0.00 | 70 | 1008.6 |
| 20260510042516 | 77 | 156 | 0.0 | 4.0 | 0.00 | 0.00 | 0.00 | 70 | 1008.6 |
| 20260510042017 | 78 | 0 | 0.0 | 4.0 | 0.00 | 0.00 | 0.00 | 70 | 1008.8 |
| 20260510041535 | 78 | 0 | 0.0 | 4.0 | 0.00 | 0.00 | 0.00 | 70 | 1008.9 |
| 20260510041015 | 78 | 0 | 0.0 | 3.0 | 0.00 | 0.00 | 0.00 | 69 | 1009.0 |
| 20260510040513 | 78 | 0 | 0.0 | 3.0 | 0.00 | 0.00 | 0.00 | 69 | 1008.9 |
| 20260510040039 | 78 | 0 | 0.0 | 3.0 | 0.00 | 0.00 | 0.00 | 68 | 1009.0 |
| 20260510035514 | 78 | 0 | 0.0 | 3.0 | 0.00 | 0.00 | 0.00 | 68 | 1009.1 |
| 20260510035016 | 78 | 0 | 0.0 | 2.0 | 0.00 | 0.00 | 0.00 | 68 | 1009.1 |
| 20260510034532 | 79 | 0 | 0.0 | 5.0 | 0.00 | 0.00 | 0.00 | 67 | 1009.0 |
| 20260510034015 | 79 | 0 | 0.0 | 5.0 | 0.00 | 0.00 | 0.00 | 67 | 1009.0 |
| 20260510033517 | 79 | 194 | 0.0 | 3.0 | 0.00 | 0.00 | 0.00 | 66 | 1008.9 |
| 20260510033033 | 79 | 0 | 0.0 | 2.0 | 0.00 | 0.00 | 0.00 | 66 | 1008.9 |
| 20260510032514 | 79 | 0 | 0.0 | 2.0 | 0.00 | 0.00 | 0.00 | 66 | 1008.9 |
| 20260510032018 | 79 | 0 | 0.0 | 1.0 | 0.00 | 0.00 | 0.00 | 66 | 1008.9 |
| 20260510031534 | 80 | 0 | 0.0 | 1.0 | 0.00 | 0.00 | 0.00 | 66 | 1008.9 |
| 20260510031015 | 80 | 0 | 0.0 | 4.0 | 0.00 | 0.00 | 0.00 | 65 | 1009.0 |
| 20260510030512 | 80 | 0 | 0.0 | 4.0 | 0.00 | 0.00 | 0.00 | 65 | 1009.0 |
| 20260510030031 | 80 | 0 | 0.0 | 3.0 | 0.00 | 0.00 | 0.00 | 65 | 1009.0 |
| 20260510025514 | 80 | 0 | 0.0 | 3.0 | 0.00 | 0.00 | 0.00 | 64 | 1008.9 |
| 20260510025014 | 80 | 0 | 0.0 | 6.0 | 0.00 | 0.00 | 0.00 | 64 | 1009.1 |
| 20260510024531 | 80 | 225 | 0.0 | 6.0 | 0.00 | 0.00 | 0.00 | 63 | 1009.0 |
| 20260510024019 | 81 | 127 | 0.0 | 4.0 | 0.00 | 0.00 | 0.00 | 63 | 1009.0 |
| 20260510023513 | 81 | 112 | 0.0 | 4.0 | 0.00 | 0.00 | 0.00 | 62 | 1009.0 |
| 20260510023032 | 81 | 0 | 1.0 | 4.0 | 0.00 | 0.00 | 0.00 | 62 | 1009.0 |
| 20260510022515 | 81 | 0 | 0.0 | 3.0 | 0.00 | 0.00 | 0.00 | 62 | 1008.9 |
| 20260510022015 | 81 | 0 | 0.0 | 3.0 | 0.00 | 0.00 | 0.00 | 61 | 1008.8 |
| 20260510021541 | 81 | 0 | 0.0 | 3.0 | 0.00 | 0.00 | 0.00 | 61 | 1008.8 |
| 20260510021014 | 82 | 0 | 0.0 | 0.0 | 0.00 | 0.00 | 0.00 | 60 | 1008.8 |
| 20260510020513 | 82 | 0 | 0.0 | 2.0 | 0.00 | 0.00 | 0.00 | 59 | 1008.9 |
| 20260510020032 | 82 | 0 | 0.0 | 2.0 | 0.00 | 0.00 | 0.00 | 59 | 1008.8 |
| 20260510015514 | 82 | 125 | 0.0 | 1.0 | 0.00 | 0.00 | 0.00 | 59 | 1008.6 |
| 20260510015014 | 82 | 125 | 0.0 | 1.0 | 0.00 | 0.00 | 0.00 | 60 | 1008.6 |
| 20260510014535 | 83 | 0 | 0.0 | 2.0 | 0.00 | 0.00 | 0.00 | 60 | 1008.7 |
| 20260510014014 | 83 | 0 | 0.0 | 3.0 | 0.00 | 0.00 | 0.00 | 59 | 1008.6 |
| 20260510013516 | 83 | 0 | 1.0 | 3.0 | 0.00 | 0.00 | 0.00 | 57 | 1008.5 |
| 20260510013035 | 83 | 113 | 0.0 | 2.0 | 0.00 | 0.00 | 0.00 | 54 | 1008.5 |
| 20260510012514 | 83 | 0 | 0.0 | 2.0 | 0.00 | 0.00 | 0.00 | 54 | 1008.5 |
| 20260510012015 | 83 | 0 | 0.0 | 2.0 | 0.00 | 0.00 | 0.00 | 54 | 1008.3 |
| 20260510011541 | 83 | 0 | 0.0 | 2.0 | 0.00 | 0.00 | 0.00 | 53 | 1008.2 |
| 20260510011013 | 83 | 107 | 0.0 | 2.0 | 0.00 | 0.00 | 0.00 | 53 | 1008.2 |
| 20260510010513 | 84 | 110 | 1.0 | 3.0 | 0.00 | 0.00 | 0.00 | 53 | 1008.2 |
| 20260510010032 | 84 | 0 | 0.0 | 4.0 | 0.00 | 0.00 | 0.00 | 53 | 1008.0 |
| 20260510005513 | 84 | 0 | 0.0 | 4.0 | 0.00 | 0.00 | 0.00 | 52 | 1008.0 |
| 20260510005014 | 84 | 106 | 1.0 | 4.0 | 0.00 | 0.00 | 0.00 | 51 | 1008.1 |
| 20260510004536 | 84 | 100 | 1.0 | 4.0 | 0.00 | 0.00 | 0.00 | 51 | 1008.1 |
| 20260510004015 | 84 | 102 | 1.0 | 4.0 | 0.00 | 0.00 | 0.00 | 51 | 1008.0 |
| 20260510003517 | 84 | 97 | 1.0 | 6.0 | 0.00 | 0.00 | 0.00 | 52 | 1008.0 |
| 20260510003031 | 84 | 107 | 1.0 | 6.0 | 0.00 | 0.00 | 0.00 | 51 | 1008.0 |
| 20260510002514 | 84 | 0 | 0.0 | 6.0 | 0.00 | 0.00 | 0.00 | 51 | 1007.9 |
| 20260510002014 | 85 | 132 | 1.0 | 6.0 | 0.00 | 0.00 | 0.00 | 51 | 1008.0 |
| 20260510001534 | 85 | 91 | 1.0 | 7.0 | 0.00 | 0.00 | 0.00 | 52 | 1008.0 |
| 20260510001015 | 85 | 108 | 1.0 | 7.0 | 0.00 | 0.00 | 0.00 | 52 | 1008.1 |
| 20260510000515 | 85 | 79 | 1.0 | 6.0 | 0.00 | 0.00 | 0.00 | 53 | 1008.2 |
| 20260510000045 | 85 | 94 | 1.0 | 6.0 | 0.00 | 0.00 | 0.00 | 52 | 1008.1 |
| 20260509235516 | 85 | 58 | 1.0 | 4.0 | 0.00 | 0.00 | 0.00 | 52 | 1008.1 |
| 20260509235014 | 86 | 135 | 1.0 | 6.0 | 0.00 | 0.00 | 0.00 | 53 | 1008.1 |
| 20260509234534 | 86 | 133 | 1.0 | 6.0 | 0.00 | 0.00 | 0.00 | 52 | 1008.1 |
| 20260509234018 | 86 | 116 | 1.0 | 6.0 | 0.00 | 0.00 | 0.00 | 53 | 1008.0 |
| 20260509233515 | 86 | 117 | 1.0 | 6.0 | 0.00 | 0.00 | 0.00 | 53 | 1008.1 |
| 20260509233033 | 86 | 0 | 0.0 | 3.0 | 0.00 | 0.00 | 0.00 | 53 | 1008.2 |
| 20260509232513 | 86 | 112 | 0.0 | 3.0 | 0.00 | 0.00 | 0.00 | 53 | 1008.3 |
| 20260509232014 | 86 | 0 | 0.0 | 7.0 | 0.00 | 0.00 | 0.00 | 53 | 1008.2 |
| 20260509231531 | 87 | 111 | 3.0 | 7.0 | 0.00 | 0.00 | 0.00 | 53 | 1008.1 |
| 20260509231019 | 87 | 134 | 2.0 | 5.0 | 0.00 | 0.00 | 0.00 | 53 | 1008.1 |
| 20260509230512 | 87 | 0 | 1.0 | 8.0 | 0.00 | 0.00 | 0.00 | 53 | 1008.2 |
| 20260509230034 | 87 | 0 | 0.0 | 8.0 | 0.00 | 0.00 | 0.00 | 53 | 1008.2 |